Litherland, United Kingdom
Current Conditions -  °F | °C
As of 7:50 PM on Friday 31 Oct 2014 (Local Time) from EGGP Reporting Station
Scattered Clouds Scattered Clouds  
Wind Chill: 63°   Ceiling: Unl
Heat Index: 63°   Visibility: 6mi
Dew Point: 57°   Wind: 14mph
Humidity: 82%   Direction: 160°SSE
Pressure: 29.77"   Gusts: NA
Location:  53.47°N, 3°W
Report Text: EGGP 311950Z 16012KT 9999 FEW035 SCT045 17/14 Q1008
Loading
Personal Weather Stations






























Interactive Weather Map New forecast layout! Learn more

10-Day Weather Forecast

Advertisements
Track Severe Weather on mobile